Terminal Aerodrome Forecast
Issued by NWS

Home | Current Version | Previous Version | Graphics & Text | Print | Product List | Glossary Off
Versions: 1 2 3 4 5 6 7 8 9 10 11 12 13 14

000
FTUS43 KDDC 142210 AAA
TAFHYS
TAF AMD
KHYS 142210Z 1422/1518 29010KT P6SM FEW200
     FM150400 30009KT 5SM -SN OVC040
     FM150600 35012KT 1SM -SN OVC008
     FM151000 36018KT 5SM -SN OVC025
     FM151300 36019KT P6SM OVC060=

USA.gov is the U.S. government's official web portal to all federal, state and local government web resources and services.